Time;durP1;ratioP1;P1;durP2;ratioP2;P2;SDS_P1;SDS_P2;PMS_P1;PMS_P2;Temp;Humidity;BMP_temperature;BMP_pressure;BME280_temperature;BME280_humidity;BME280_pressure;Samples;Min_cycle;Max_cycle;Signal;HPM_P1;HPM_P2
2022/04/01 00:00:48;;;;;;;4.38;2.22;;;0.40;99.90;;;;;;5088880;28;20130;-66
2022/04/01 00:03:14;;;;;;;3.47;1.70;;;0.40;99.90;;;;;;5099709;28;20050;-66
2022/04/01 00:05:40;;;;;;;3.30;1.80;;;0.40;99.90;;;;;;5091921;28;20100;-66
2022/04/01 00:08:06;;;;;;;3.75;1.58;;;0.40;99.90;;;;;;5098060;28;20589;-65
2022/04/01 00:10:32;;;;;;;4.30;1.85;;;0.40;99.90;;;;;;5089362;28;20028;-66
2022/04/01 00:12:58;;;;;;;4.03;1.80;;;0.40;99.90;;;;;;5075661;28;20077;-66
2022/04/01 00:15:24;;;;;;;3.22;1.80;;;0.40;99.90;;;;;;5073670;28;20044;-67
2022/04/01 00:17:49;;;;;;;5.75;1.70;;;0.40;99.90;;;;;;5098704;28;20040;-66
2022/04/01 00:20:17;;;;;;;2.78;1.55;;;0.40;99.90;;;;;;5090904;28;20036;-66
2022/04/01 00:22:43;;;;;;;3.53;2.47;;;0.40;99.90;;;;;;5104605;28;20454;-67
2022/04/01 00:25:09;;;;;;;2.03;1.33;;;0.40;99.90;;;;;;5103862;28;20122;-65
2022/04/01 00:27:35;;;;;;;4.80;1.70;;;0.40;99.90;;;;;;5097754;28;20039;-66
2022/04/01 00:30:01;;;;;;;3.20;1.50;;;0.40;99.90;;;;;;5102072;27;20120;-66
2022/04/01 00:32:28;;;;;;;5.97;2.08;;;0.40;99.90;;;;;;5096261;28;20057;-69
2022/04/01 00:34:53;;;;;;;2.20;1.60;;;0.40;99.90;;;;;;5106691;28;20084;-65
2022/04/01 00:37:19;;;;;;;3.33;1.30;;;0.40;99.90;;;;;;5098633;28;20054;-66
2022/04/01 00:39:45;;;;;;;2.55;1.60;;;0.40;99.90;;;;;;5098619;28;20040;-66
2022/04/01 00:42:11;;;;;;;3.50;1.85;;;0.40;99.90;;;;;;5113365;28;20115;-65
2022/04/01 00:44:38;;;;;;;3.55;1.88;;;0.40;99.90;;;;;;5107729;28;20031;-65
2022/04/01 00:47:14;;;;;;;2.20;1.38;;;0.40;99.90;;;;;;5081098;28;20474;-66
2022/04/01 00:49:42;;;;;;;2.13;1.42;;;0.40;99.90;;;;;;5081751;28;20047;-64
2022/04/01 00:52:11;;;;;;;2.70;1.45;;;0.40;99.90;;;;;;5093050;28;20051;-65
2022/04/01 00:54:37;;;;;;;2.20;1.35;;;0.40;99.90;;;;;;5098371;28;20043;-66
2022/04/01 00:57:08;;;;;;;3.72;1.67;;;0.40;99.90;;;;;;5098408;28;20509;-65
2022/04/01 00:59:33;;;;;;;3.50;1.35;;;0.40;99.90;;;;;;5107864;28;20046;-66
2022/04/01 01:02:00;;;;;;;3.30;1.60;;;0.40;99.90;;;;;;5107835;28;20377;-65
2022/04/01 01:04:26;;;;;;;2.90;1.67;;;0.40;99.90;;;;;;5101764;28;20051;-65
2022/04/01 01:06:53;;;;;;;5.03;1.80;;;0.50;99.90;;;;;;5091526;28;20507;-64
2022/04/01 01:09:19;;;;;;;4.07;1.92;;;0.50;99.90;;;;;;5096481;28;20584;-65
2022/04/01 01:11:47;;;;;;;2.25;1.52;;;0.40;99.90;;;;;;5096009;28;20063;-65
2022/04/01 01:14:14;;;;;;;2.92;1.60;;;0.50;99.90;;;;;;5090784;28;20096;-65
2022/04/01 01:16:41;;;;;;;4.82;1.83;;;0.50;99.90;;;;;;5098481;28;20078;-64
2022/04/01 01:19:12;;;;;;;2.72;1.48;;;0.40;99.90;;;;;;5097084;28;20092;-65
2022/04/01 01:21:39;;;;;;;4.07;1.90;;;0.50;99.90;;;;;;5098292;28;20035;-65
2022/04/01 01:24:07;;;;;;;2.80;2.28;;;0.50;99.90;;;;;;5089591;28;20521;-65
2022/04/01 01:26:35;;;;;;;3.38;1.40;;;0.40;99.90;;;;;;5090541;28;20055;-65
2022/04/01 01:29:02;;;;;;;2.72;1.67;;;0.40;99.90;;;;;;5104592;28;20473;-64
2022/04/01 01:31:28;;;;;;;2.70;1.73;;;0.40;99.90;;;;;;5100871;28;20084;-64
2022/04/01 01:33:54;;;;;;;3.53;1.77;;;0.40;99.90;;;;;;5102806;28;20061;-64
2022/04/01 01:36:21;;;;;;;5.63;1.67;;;0.40;99.90;;;;;;5096518;28;20048;-65
2022/04/01 01:38:46;;;;;;;2.97;1.60;;;0.50;99.90;;;;;;5099043;28;20032;-64
2022/04/01 01:41:12;;;;;;;2.95;1.73;;;0.40;99.90;;;;;;5091511;28;20044;-65
2022/04/01 01:43:39;;;;;;;3.25;1.52;;;0.40;99.90;;;;;;5101766;28;20067;-64
2022/04/01 01:46:05;;;;;;;2.42;1.42;;;0.50;99.90;;;;;;5104748;28;20082;-64
2022/04/01 01:48:30;;;;;;;2.25;1.60;;;0.50;99.90;;;;;;5091164;28;20169;-64
2022/04/01 01:56:24;;;;;;;5.63;2.03;;;0.50;99.90;;;;;;5105308;28;20058;-66
2022/04/01 01:58:50;;;;;;;3.20;1.58;;;0.50;99.90;;;;;;5074814;28;20040;-65
2022/04/01 02:01:15;;;;;;;3.25;1.67;;;0.50;99.90;;;;;;5107869;27;20039;-64
2022/04/01 02:03:41;;;;;;;4.47;1.77;;;0.50;99.90;;;;;;5099578;28;20114;-65
2022/04/01 02:06:07;;;;;;;3.72;2.00;;;0.50;99.90;;;;;;5095662;28;20040;-69
2022/04/01 02:08:33;;;;;;;2.35;1.90;;;0.50;99.90;;;;;;5088105;28;20482;-64
2022/04/01 02:10:59;;;;;;;3.97;1.95;;;0.50;99.90;;;;;;5090406;28;20055;-64
2022/04/01 02:13:27;;;;;;;3.78;1.50;;;0.50;99.90;;;;;;5099049;28;20083;-64
2022/04/01 02:15:53;;;;;;;2.97;1.63;;;0.50;99.90;;;;;;5086792;28;20122;-64
2022/04/01 02:18:20;;;;;;;3.35;1.83;;;0.50;99.90;;;;;;5104846;28;20493;-65
2022/04/01 02:20:47;;;;;;;4.13;2.08;;;0.50;99.90;;;;;;5078294;28;20072;-64
2022/04/01 02:23:12;;;;;;;3.33;1.85;;;0.50;99.90;;;;;;5103275;28;20059;-64
2022/04/01 02:25:39;;;;;;;2.45;1.40;;;0.50;99.90;;;;;;5076326;28;20055;-64
2022/04/01 02:28:04;;;;;;;3.92;1.95;;;0.50;99.90;;;;;;5090186;28;20464;-64
2022/04/01 02:30:30;;;;;;;3.58;1.70;;;0.50;99.90;;;;;;5097721;28;20077;-64
2022/04/01 02:32:56;;;;;;;2.38;1.65;;;0.40;99.90;;;;;;5089813;28;20040;-64
2022/04/01 02:35:22;;;;;;;3.35;1.63;;;0.40;99.90;;;;;;5090176;28;20040;-64
2022/04/01 02:37:48;;;;;;;4.90;2.10;;;0.40;99.90;;;;;;5091272;28;20046;-65
2022/04/01 02:40:14;;;;;;;4.07;1.75;;;0.40;99.90;;;;;;5079409;28;20028;-64
2022/04/01 02:42:40;;;;;;;2.78;1.52;;;0.40;99.90;;;;;;5099913;28;20071;-64
2022/04/01 02:45:06;;;;;;;6.65;2.28;;;0.40;99.90;;;;;;5099479;28;20116;-65
2022/04/01 02:47:32;;;;;;;3.53;1.48;;;0.50;99.90;;;;;;5103146;28;20039;-64
2022/04/01 02:49:57;;;;;;;2.72;1.52;;;0.50;99.90;;;;;;5109045;28;20035;-64
2022/04/01 02:52:23;;;;;;;3.30;1.70;;;0.50;99.90;;;;;;5100880;28;20487;-64
2022/04/01 02:54:49;;;;;;;4.03;1.67;;;0.50;99.90;;;;;;5093838;28;20444;-64
2022/04/01 02:57:14;;;;;;;2.75;1.60;;;0.50;99.90;;;;;;5090679;28;20075;-65
2022/04/01 02:59:40;;;;;;;1.58;1.35;;;0.50;99.90;;;;;;5109897;28;20043;-65
2022/04/01 03:02:05;;;;;;;3.75;2.55;;;0.50;99.90;;;;;;5094817;28;20349;-65
2022/04/01 03:04:31;;;;;;;2.38;1.50;;;0.50;99.90;;;;;;5108919;28;20371;-65
2022/04/01 03:06:56;;;;;;;2.13;1.33;;;0.50;99.90;;;;;;5098186;28;20634;-65
2022/04/01 03:09:22;;;;;;;2.65;1.33;;;0.50;99.90;;;;;;5092557;28;20051;-65
2022/04/01 03:11:47;;;;;;;2.28;1.45;;;0.50;99.90;;;;;;5096716;28;20043;-65
2022/04/01 03:14:13;;;;;;;2.05;1.20;;;0.60;99.90;;;;;;5099701;28;21133;-64
2022/04/01 03:16:39;;;;;;;3.25;1.63;;;0.60;99.90;;;;;;5095025;28;20420;-66
2022/04/01 03:19:11;;;;;;;3.38;1.58;;;0.60;99.90;;;;;;5102769;28;20142;-65
2022/04/01 03:21:41;;;;;;;4.38;1.55;;;0.60;99.90;;;;;;5106467;28;20039;-65
2022/04/01 03:24:09;;;;;;;;;;;0.60;99.90;;;;;;5106501;28;20051;-65
2022/04/01 03:26:35;;;;;;;3.83;1.30;;;0.60;99.90;;;;;;5098587;28;19963;-65
2022/04/01 03:29:01;;;;;;;2.75;1.20;;;0.60;99.90;;;;;;5073122;28;20040;-65
2022/04/01 03:31:28;;;;;;;2.08;1.50;;;0.60;99.90;;;;;;5106550;28;20114;-66
2022/04/01 03:33:54;;;;;;;2.72;1.88;;;0.60;99.90;;;;;;5102232;28;20065;-66
2022/04/01 03:36:20;;;;;;;3.88;1.48;;;0.60;99.90;;;;;;5089927;28;20043;-65
2022/04/01 03:38:46;;;;;;;2.42;1.67;;;0.60;99.90;;;;;;5096607;28;20480;-65
2022/04/01 03:41:12;;;;;;;2.90;1.65;;;0.60;99.90;;;;;;5086988;28;20039;-65
2022/04/01 03:43:40;;;;;;;4.95;1.60;;;0.60;99.90;;;;;;5100908;28;20047;-65
2022/04/01 03:46:13;;;;;;;3.08;1.23;;;0.60;99.90;;;;;;5097790;28;20052;-65
2022/04/01 03:48:51;;;;;;;6.10;1.60;;;0.60;99.90;;;;;;5107141;28;20036;-65
2022/04/01 03:51:19;;;;;;;2.08;1.30;;;0.70;99.90;;;;;;5082355;28;20039;-66
2022/04/01 03:53:55;;;;;;;3.45;2.00;;;0.70;99.90;;;;;;5105398;28;20074;-65
2022/04/01 03:56:34;;;;;;;3.38;1.23;;;0.70;99.90;;;;;;5092565;28;20559;-65
2022/04/01 03:59:14;;;;;;;3.83;1.40;;;0.70;99.90;;;;;;5096877;28;20046;-65
2022/04/01 04:01:39;;;;;;;4.80;1.35;;;0.70;99.90;;;;;;5093336;28;20466;-65
2022/04/01 04:04:06;;;;;;;4.78;2.03;;;0.70;99.90;;;;;;5095111;28;20039;-65
2022/04/01 04:06:36;;;;;;;5.40;2.63;;;0.70;99.90;;;;;;5101408;28;20043;-65
2022/04/01 04:09:03;;;;;;;3.38;1.65;;;0.70;99.90;;;;;;5093992;28;20146;-66
2022/04/01 04:11:31;;;;;;;2.50;1.58;;;0.70;99.90;;;;;;5089793;28;20040;-65
2022/04/01 04:13:57;;;;;;;4.60;1.80;;;0.70;99.90;;;;;;5084803;28;20628;-65
2022/04/01 04:16:42;;;;;;;3.40;1.55;;;0.70;99.90;;;;;;5093945;28;20055;-66
2022/04/01 04:19:10;;;;;;;3.67;1.40;;;0.60;99.90;;;;;;5100966;28;20043;-65
2022/04/01 04:21:41;;;;;;;3.95;1.63;;;0.70;99.90;;;;;;5083417;28;20040;-66
2022/04/01 04:24:17;;;;;;;2.40;1.33;;;0.60;99.90;;;;;;5122762;27;20056;-66
2022/04/01 04:26:51;;;;;;;2.42;1.33;;;0.70;99.90;;;;;;5089664;28;20472;-65
2022/04/01 04:29:18;;;;;;;1.75;1.30;;;0.70;99.90;;;;;;5092300;28;20048;-65
2022/04/01 04:31:59;;;;;;;2.92;1.67;;;0.70;99.90;;;;;;5092066;28;20061;-65
2022/04/01 04:34:36;;;;;;;3.08;1.27;;;0.70;99.90;;;;;;5122801;27;20155;-65
2022/04/01 04:37:02;;;;;;;2.22;1.30;;;0.70;99.90;;;;;;5101964;28;20035;-66
2022/04/01 04:39:33;;;;;;;3.15;1.15;;;0.70;99.90;;;;;;5078558;28;20031;-65
2022/04/01 04:42:01;;;;;;;4.93;1.60;;;0.70;99.90;;;;;;5099622;28;20044;-66
2022/04/01 04:44:29;;;;;;;6.63;1.77;;;0.80;99.90;;;;;;5094362;28;20035;-65
2022/04/01 04:47:03;;;;;;;3.58;1.55;;;0.80;99.90;;;;;;5101590;28;20047;-66
2022/04/01 04:49:29;;;;;;;4.13;1.35;;;0.80;99.90;;;;;;5100371;28;20036;-65
2022/04/01 04:51:56;;;;;;;3.20;1.90;;;0.90;99.90;;;;;;5094630;28;20092;-66
2022/04/01 04:54:24;;;;;;;2.13;1.10;;;0.90;99.90;;;;;;5119032;28;20036;-66
2022/04/01 04:56:50;;;;;;;1.88;1.10;;;0.90;99.90;;;;;;5100576;28;20482;-65
2022/04/01 04:59:20;;;;;;;2.22;1.30;;;0.90;99.90;;;;;;5103109;28;20118;-65
2022/04/01 05:02:04;;;;;;;2.33;1.10;;;1.00;99.90;;;;;;5095134;28;20042;-66
2022/04/01 05:04:45;;;;;;;2.97;1.10;;;1.00;99.90;;;;;;5078818;28;20078;-66
2022/04/01 05:07:33;;;;;;;3.10;1.60;;;1.00;99.90;;;;;;5090175;28;20063;-66
2022/04/01 05:10:18;;;;;;;4.53;1.25;;;1.00;99.90;;;;;;5100316;28;20036;-66
2022/04/01 05:13:08;;;;;;;3.00;1.33;;;1.00;99.90;;;;;;5101639;28;20039;-66
2022/04/01 05:15:37;;;;;;;1.30;0.80;;;1.00;99.90;;;;;;5094841;28;20089;-65
2022/04/01 05:18:10;;;;;;;2.53;1.35;;;1.00;99.90;;;;;;5102153;28;20062;-66
2022/04/01 05:21:00;;;;;;;1.73;0.98;;;1.00;99.90;;;;;;5100020;28;20138;-65
2022/04/01 05:23:44;;;;;;;2.38;1.00;;;1.00;99.90;;;;;;5097852;28;20056;-66
2022/04/01 05:26:14;;;;;;;2.58;1.30;;;1.00;99.90;;;;;;5091855;28;20123;-65
2022/04/01 05:28:51;;;;;;;3.75;1.02;;;1.00;99.90;;;;;;5099316;28;20684;-65
2022/04/01 05:31:30;;;;;;;2.42;1.40;;;1.00;99.90;;;;;;5099948;28;20067;-66
2022/04/01 05:34:03;;;;;;;2.03;1.30;;;1.00;99.90;;;;;;5111580;28;20027;-65
2022/04/01 05:36:30;;;;;;;3.35;1.02;;;1.10;99.90;;;;;;5108157;28;20043;-66
2022/04/01 05:38:57;;;;;;;7.03;1.50;;;1.00;99.90;;;;;;5109435;27;20096;-66
2022/04/01 05:41:23;;;;;;;1.88;1.15;;;1.10;99.90;;;;;;5100873;28;20036;-65
2022/04/01 05:43:50;;;;;;;2.55;1.30;;;1.00;99.90;;;;;;5112025;28;20123;-65
2022/04/01 05:46:17;;;;;;;3.33;1.20;;;1.10;99.90;;;;;;5107258;28;20064;-66
2022/04/01 05:48:43;;;;;;;5.43;1.30;;;1.10;99.90;;;;;;5082624;28;20078;-66
2022/04/01 05:51:15;;;;;;;2.75;1.25;;;1.10;99.90;;;;;;5109543;28;20039;-66
2022/04/01 05:53:46;;;;;;;3.45;1.30;;;1.10;99.90;;;;;;5109761;28;20036;-66
2022/04/01 05:56:14;;;;;;;3.38;1.83;;;1.20;99.90;;;;;;5107879;28;20044;-66
2022/04/01 05:58:42;;;;;;;3.85;1.30;;;1.20;99.90;;;;;;5083290;28;20071;-65
2022/04/01 06:01:22;;;;;;;2.60;1.23;;;1.20;99.90;;;;;;5097665;28;20483;-66
2022/04/01 06:04:12;;;;;;;3.15;1.20;;;1.20;99.90;;;;;;5084385;28;20046;-66
2022/04/01 06:06:43;;;;;;;1.52;1.13;;;1.20;99.90;;;;;;5093374;28;20050;-66
2022/04/01 06:09:47;;;;;;;3.63;1.10;;;1.20;99.90;;;;;;5088960;28;20119;-66
2022/04/01 06:12:20;;;;;;;4.57;1.20;;;1.20;99.90;;;;;;5090270;28;20047;-66
2022/04/01 06:15:02;;;;;;;1.48;0.90;;;1.30;99.90;;;;;;5093831;28;20036;-66
2022/04/01 06:17:49;;;;;;;2.53;1.35;;;1.30;99.90;;;;;;5097738;28;20486;-66
2022/04/01 06:20:16;;;;;;;2.97;1.40;;;1.30;99.90;;;;;;5100698;28;20036;-67
2022/04/01 06:22:55;;;;;;;1.92;1.27;;;1.30;99.90;;;;;;5110082;27;20558;-69
2022/04/01 06:25:30;;;;;;;2.35;1.15;;;1.30;99.90;;;;;;5091024;28;20055;-66
2022/04/01 06:28:08;;;;;;;4.68;1.23;;;1.30;99.90;;;;;;5124708;27;20058;-65
2022/04/01 06:30:35;;;;;;;5.63;1.77;;;1.30;99.90;;;;;;5099708;27;20043;-67
2022/04/01 06:33:18;;;;;;;1.80;1.30;;;1.40;99.90;;;;;;5109668;27;20146;-67
2022/04/01 06:35:55;;;;;;;4.30;1.35;;;1.40;99.90;;;;;;5087885;27;20042;-66
2022/04/01 06:38:32;;;;;;;2.35;1.42;;;1.40;99.90;;;;;;5111176;27;20316;-67
2022/04/01 06:41:01;;;;;;;3.25;1.30;;;1.50;99.90;;;;;;5111598;27;20111;-66
2022/04/01 06:43:27;;;;;;;1.95;1.25;;;1.50;99.90;;;;;;5109523;27;20114;-67
2022/04/01 06:45:53;;;;;;;3.28;1.13;;;1.50;99.90;;;;;;5096109;27;20038;-68
2022/04/01 06:48:19;;;;;;;3.63;1.75;;;1.50;99.90;;;;;;5087027;27;20089;-67
2022/04/01 06:50:49;;;;;;;2.50;1.15;;;1.60;99.90;;;;;;5097659;27;20117;-68
2022/04/01 06:53:19;;;;;;;6.32;1.70;;;1.60;99.90;;;;;;5063443;27;20038;-67
2022/04/01 06:55:47;;;;;;;3.30;1.35;;;1.70;99.90;;;;;;5103766;28;20027;-68
2022/04/01 06:58:13;;;;;;;2.88;1.30;;;1.70;99.90;;;;;;5083760;27;20099;-67
2022/04/01 07:00:43;;;;;;;3.90;1.15;;;1.70;99.90;;;;;;5107610;27;20437;-67
2022/04/01 07:03:10;;;;;;;3.13;1.30;;;1.70;99.90;;;;;;5100452;27;20092;-68
2022/04/01 07:05:35;;;;;;;3.13;1.25;;;1.70;99.90;;;;;;5084705;27;20104;-68
2022/04/01 07:08:02;;;;;;;2.33;1.05;;;1.70;99.90;;;;;;5093491;27;20043;-69
2022/04/01 07:10:28;;;;;;;4.72;1.35;;;1.70;99.90;;;;;;5098210;27;20376;-68
2022/04/01 07:12:54;;;;;;;4.50;1.48;;;1.60;99.90;;;;;;5113313;27;20031;-68
2022/04/01 07:15:19;;;;;;;3.97;2.10;;;1.70;99.90;;;;;;5110909;27;20440;-68
2022/04/01 07:17:45;;;;;;;4.22;1.20;;;1.70;99.90;;;;;;5110426;27;20103;-67
2022/04/01 07:20:14;;;;;;;4.15;1.60;;;1.80;99.90;;;;;;5109883;27;20043;-67
2022/04/01 07:22:40;;;;;;;2.33;1.30;;;1.80;99.90;;;;;;5106783;27;20071;-68
2022/04/01 07:25:09;;;;;;;1.95;1.08;;;1.80;99.90;;;;;;5108406;27;20073;-69
2022/04/01 07:27:35;;;;;;;2.22;1.50;;;1.80;99.90;;;;;;5112379;27;20035;-69
2022/04/01 07:30:01;;;;;;;3.85;1.23;;;1.90;99.90;;;;;;5080113;28;20088;-71
2022/04/01 07:32:32;;;;;;;3.03;1.48;;;1.90;99.90;;;;;;5113159;27;20087;-69
2022/04/01 07:34:59;;;;;;;2.85;1.15;;;1.90;99.90;;;;;;5112575;27;20092;-68
2022/04/01 07:37:25;;;;;;;2.13;1.20;;;1.90;99.90;;;;;;5098774;27;20152;-68
2022/04/01 07:39:52;;;;;;;2.25;1.48;;;2.00;99.90;;;;;;5113019;27;20493;-68
2022/04/01 07:42:20;;;;;;;2.35;1.50;;;2.00;99.90;;;;;;5095472;28;20043;-69
2022/04/01 07:44:47;;;;;;;3.22;1.45;;;2.00;99.90;;;;;;5098023;28;20094;-68
2022/04/01 07:47:14;;;;;;;3.80;1.70;;;2.00;99.90;;;;;;5105950;27;20626;-69
2022/04/01 07:49:40;;;;;;;3.85;1.90;;;2.00;99.90;;;;;;5111478;27;20046;-69
2022/04/01 07:52:10;;;;;;;2.42;2.10;;;2.10;99.90;;;;;;5096773;27;20074;-68
2022/04/01 07:54:37;;;;;;;3.05;1.40;;;2.10;99.90;;;;;;5111037;27;20035;-69
2022/04/01 07:57:05;;;;;;;4.22;1.92;;;2.20;99.90;;;;;;5085699;28;20047;-69
2022/04/01 07:59:31;;;;;;;4.03;2.10;;;2.20;99.90;;;;;;5093612;28;20435;-69
2022/04/01 08:01:57;;;;;;;6.25;2.40;;;2.30;99.90;;;;;;5094379;28;20119;-70
2022/04/01 08:04:26;;;;;;;6.00;2.20;;;2.30;99.90;;;;;;5075590;28;20047;-68
2022/04/01 08:06:55;;;;;;;7.90;2.58;;;2.40;99.90;;;;;;5082484;27;20023;-67
2022/04/01 08:09:21;;;;;;;5.85;2.50;;;2.50;99.90;;;;;;5109997;27;20569;-69
2022/04/01 08:11:47;;;;;;;3.50;2.47;;;2.60;99.90;;;;;;5100073;28;20099;-67
2022/04/01 08:14:13;;;;;;;5.90;2.88;;;2.70;99.90;;;;;;5098218;28;20488;-68
2022/04/01 08:16:39;;;;;;;5.57;2.65;;;2.70;99.90;;;;;;5075964;28;20412;-67
2022/04/01 08:19:05;;;;;;;5.25;2.78;;;2.80;99.90;;;;;;5110017;27;20245;-67
2022/04/01 08:21:32;;;;;;;4.13;2.70;;;2.80;99.90;;;;;;5097302;28;20585;-67
2022/04/01 08:24:00;;;;;;;6.90;3.30;;;2.80;99.90;;;;;;5105874;28;20047;-66
2022/04/01 08:26:26;;;;;;;5.00;3.05;;;2.90;99.90;;;;;;5097910;28;20118;-67
2022/04/01 08:28:53;;;;;;;6.15;3.53;;;3.00;99.90;;;;;;5104431;28;20043;-67
2022/04/01 08:31:20;;;;;;;5.57;3.80;;;3.00;99.90;;;;;;5098189;28;20032;-67
2022/04/01 08:33:46;;;;;;;7.65;3.70;;;3.00;99.90;;;;;;5098881;28;20744;-67
2022/04/01 08:36:12;;;;;;;6.53;3.60;;;3.00;99.90;;;;;;5095435;28;20550;-67
2022/04/01 08:38:37;;;;;;;9.05;4.05;;;3.00;99.90;;;;;;5093560;28;20046;-68
2022/04/01 08:41:04;;;;;;;9.68;4.13;;;3.10;99.90;;;;;;5107365;28;20075;-67
2022/04/01 08:43:34;;;;;;;8.40;4.18;;;3.10;99.90;;;;;;5107255;28;20035;-68
2022/04/01 08:46:03;;;;;;;8.07;4.38;;;3.20;99.90;;;;;;5097832;28;20044;-67
2022/04/01 08:48:30;;;;;;;5.80;4.43;;;3.20;99.90;;;;;;5078004;28;23134;-68
2022/04/01 08:50:56;;;;;;;6.28;4.05;;;3.20;99.90;;;;;;5095171;28;20036;-68
2022/04/01 08:53:22;;;;;;;9.23;5.28;;;3.30;99.90;;;;;;5096012;28;20700;-68
2022/04/01 08:55:51;;;;;;;6.38;4.43;;;3.30;99.90;;;;;;5077651;28;20040;-68
2022/04/01 08:58:21;;;;;;;7.10;3.80;;;3.40;99.90;;;;;;5097546;28;20116;-68
2022/04/01 09:00:48;;;;;;;7.15;4.72;;;3.30;99.90;;;;;;5109594;28;20051;-68
2022/04/01 09:03:15;;;;;;;7.45;4.35;;;3.40;99.90;;;;;;5108711;28;20039;-68
2022/04/01 09:05:45;;;;;;;8.32;4.50;;;3.40;99.90;;;;;;5096049;28;20032;-69
2022/04/01 09:08:14;;;;;;;8.35;5.05;;;3.40;99.90;;;;;;5077990;28;20511;-68
2022/04/01 09:10:51;;;;;;;6.30;4.50;;;3.40;99.90;;;;;;5091134;28;20097;-68
2022/04/01 09:13:17;;;;;;;7.70;4.47;;;3.40;99.90;;;;;;5099250;28;20039;-68
2022/04/01 09:15:43;;;;;;;5.82;3.83;;;3.50;99.90;;;;;;5090244;28;20039;-67
2022/04/01 09:18:10;;;;;;;6.55;4.88;;;3.40;99.40;;;;;;5095159;28;20044;-67
2022/04/01 09:20:49;;;;;;;8.80;4.97;;;3.40;99.90;;;;;;5100430;28;20447;-66
2022/04/01 09:23:25;;;;;;;9.23;4.38;;;3.50;99.90;;;;;;5071740;28;20044;-67
2022/04/01 09:25:52;;;;;;;9.10;5.13;;;3.40;99.90;;;;;;5087160;28;20047;-66
2022/04/01 09:28:25;;;;;;;5.55;3.53;;;3.40;99.90;;;;;;5094371;28;20028;-69
2022/04/01 09:31:10;;;;;;;6.18;4.20;;;3.40;99.90;;;;;;5100306;28;20039;-67
2022/04/01 09:33:54;;;;;;;7.65;4.40;;;3.40;99.90;;;;;;5085145;28;20108;-66
2022/04/01 09:36:29;;;;;;;6.75;4.20;;;3.50;99.90;;;;;;5098160;28;20047;-66
2022/04/01 09:38:58;;;;;;;8.40;4.95;;;3.50;99.90;;;;;;5089618;28;20032;-67
2022/04/01 09:41:42;;;;;;;8.00;4.78;;;3.60;99.90;;;;;;5088002;28;20039;-66
2022/04/01 09:44:28;;;;;;;7.93;5.03;;;3.70;99.90;;;;;;5084624;28;20048;-67
2022/04/01 09:46:57;;;;;;;7.75;5.13;;;3.60;97.80;;;;;;5072545;28;20195;-66
2022/04/01 09:49:33;;;;;;;10.27;5.95;;;3.80;99.90;;;;;;5091453;28;20514;-66
2022/04/01 09:51:59;;;;;;;7.32;4.50;;;3.80;99.20;;;;;;5096760;28;20036;-67
2022/04/01 09:54:25;;;;;;;7.72;5.20;;;3.80;99.90;;;;;;5071775;28;20567;-66
2022/04/01 09:56:54;;;;;;;8.88;5.15;;;3.90;99.90;;;;;;5090946;28;20518;-66
2022/04/01 09:59:21;;;;;;;9.70;4.80;;;4.00;99.90;;;;;;5097094;28;20594;-67
2022/04/01 10:01:47;;;;;;;11.95;5.22;;;4.10;99.90;;;;;;5092262;28;20035;-67
2022/04/01 10:04:14;;;;;;;10.40;5.50;;;4.00;99.50;;;;;;5083645;28;20036;-67
2022/04/01 10:06:40;;;;;;;9.20;4.97;;;4.10;99.70;;;;;;5099035;28;20055;-66
2022/04/01 10:09:10;;;;;;;10.40;4.15;;;4.20;98.60;;;;;;5074138;28;20112;-66
2022/04/01 10:11:37;;;;;;;8.07;4.67;;;4.20;96.60;;;;;;5104902;28;20135;-66
2022/04/01 10:14:15;;;;;;;7.65;4.63;;;4.00;94.50;;;;;;5095206;28;20036;-68
2022/04/01 10:16:43;;;;;;;5.70;3.75;;;4.00;96.20;;;;;;5108206;28;20127;-67
2022/04/01 10:19:14;;;;;;;9.15;5.13;;;3.90;97.90;;;;;;5090721;28;20078;-66
2022/04/01 10:21:43;;;;;;;6.88;4.00;;;4.00;96.60;;;;;;5092310;28;20043;-68
2022/04/01 10:24:17;;;;;;;4.72;3.40;;;4.00;97.30;;;;;;5098144;28;20056;-66
2022/04/01 10:27:23;;;;;;;5.93;2.53;;;4.00;97.40;;;;;;5090291;28;20508;-67
2022/04/01 10:29:49;;;;;;;4.90;2.40;;;4.00;96.60;;;;;;5102320;28;20368;-67
2022/04/01 10:32:28;;;;;;;4.88;2.90;;;4.10;99.90;;;;;;5127488;27;20038;-68
2022/04/01 10:34:58;;;;;;;3.55;2.30;;;4.10;99.30;;;;;;5109595;27;20036;-67
2022/04/01 10:37:25;;;;;;;6.45;2.80;;;4.10;99.90;;;;;;5081453;28;20146;-67
2022/04/01 10:40:06;;;;;;;3.67;2.30;;;4.20;99.90;;;;;;5108494;28;20453;-68
2022/04/01 10:42:42;;;;;;;5.70;2.65;;;4.20;99.90;;;;;;5081574;28;20213;-67
2022/04/01 10:45:13;;;;;;;6.47;2.60;;;4.20;99.90;;;;;;5110879;28;20058;-67
2022/04/01 10:53:52;;;;;;;4.32;2.38;;;4.00;99.90;;;;;;5089412;28;20452;-67
2022/04/01 10:56:29;;;;;;;3.92;2.22;;;4.00;99.90;;;;;;5093195;28;20051;-68
2022/04/01 10:59:12;;;;;;;4.35;2.15;;;4.00;99.90;;;;;;5090875;28;20185;-68
2022/04/01 11:02:02;;;;;;;4.38;2.03;;;4.10;99.90;;;;;;5104787;28;20047;-68
2022/04/01 11:04:35;;;;;;;3.92;2.50;;;4.10;99.90;;;;;;5094255;28;20435;-67
2022/04/01 11:07:23;;;;;;;4.30;2.30;;;4.20;99.90;;;;;;5105069;28;20044;-67
2022/04/01 11:09:51;;;;;;;4.30;2.30;;;4.20;99.90;;;;;;5075165;28;20036;-68
2022/04/01 11:12:20;;;;;;;4.13;2.35;;;4.30;99.90;;;;;;5086916;28;20063;-68
2022/04/01 11:14:58;;;;;;;2.92;2.20;;;4.30;99.90;;;;;;5102199;28;20035;-68
2022/04/01 11:17:28;;;;;;;4.07;2.45;;;4.40;99.90;;;;;;5101935;28;20054;-67
2022/04/01 11:20:14;;;;;;;3.20;2.00;;;4.50;99.90;;;;;;5099213;28;20039;-69
2022/04/01 11:22:46;;;;;;;4.68;2.05;;;4.60;99.90;;;;;;5101993;27;20301;-68
2022/04/01 11:25:14;;;;;;;4.70;2.30;;;4.80;99.90;;;;;;5085332;27;20039;-68
2022/04/01 11:28:14;;;;;;;3.42;2.03;;;4.90;99.90;;;;;;5084258;27;20051;-68
2022/04/01 11:31:02;;;;;;;6.40;1.90;;;5.00;99.90;;;;;;5076079;28;20040;-67
2022/04/01 11:33:28;;;;;;;6.72;2.63;;;5.00;99.90;;;;;;5096618;27;20039;-67
2022/04/01 11:35:55;;;;;;;5.53;2.13;;;5.10;99.90;;;;;;5088255;27;20042;-68
2022/04/01 11:38:23;;;;;;;3.47;1.85;;;4.90;99.90;;;;;;5110220;27;20464;-68
2022/04/01 11:40:56;;;;;;;2.55;1.58;;;4.90;98.60;;;;;;5084570;27;20427;-68
2022/04/01 11:43:24;;;;;;;7.28;1.98;;;4.60;95.60;;;;;;5107842;27;20477;-68
2022/04/01 11:46:03;;;;;;;2.42;1.75;;;4.70;99.90;;;;;;5075837;28;20130;-68
2022/04/01 11:48:32;;;;;;;3.97;1.65;;;4.80;99.30;;;;;;5106731;27;20043;-68
2022/04/01 11:51:05;;;;;;;2.75;1.90;;;4.90;99.90;;;;;;5093872;28;20032;-67
2022/04/01 11:53:36;;;;;;;4.93;1.67;;;4.90;97.80;;;;;;5103966;27;20058;-69
2022/04/01 11:56:05;;;;;;;3.33;1.60;;;4.60;94.90;;;;;;5103274;27;20084;-68
2022/04/01 11:58:52;;;;;;;4.90;1.73;;;4.50;97.70;;;;;;5076869;28;20043;-67
2022/04/01 12:01:19;;;;;;;3.70;1.38;;;4.60;98.70;;;;;;5115434;27;20039;-68
2022/04/01 12:03:45;;;;;;;2.60;1.45;;;4.70;97.30;;;;;;5097815;27;20154;-68
2022/04/01 12:08:55;;;;;;;3.38;1.48;;;4.80;96.20;;;;;;5100030;28;20058;-69
2022/04/01 12:11:20;;;;;;;3.20;1.40;;;4.80;95.00;;;;;;5103261;27;20031;-67
2022/04/01 12:13:53;;;;;;;3.20;1.88;;;4.80;96.50;;;;;;5105768;27;20566;-67
2022/04/01 12:16:21;;;;;;;2.47;1.48;;;4.70;95.80;;;;;;5109184;27;20359;-67
2022/04/01 12:18:49;;;;;;;2.65;1.50;;;4.70;94.90;;;;;;5078959;28;20039;-67
2022/04/01 12:21:22;;;;;;;2.53;1.60;;;4.70;96.90;;;;;;5105570;27;20034;-67
2022/04/01 12:23:50;;;;;;;5.30;1.60;;;4.80;96.10;;;;;;5113386;27;20424;-66
2022/04/01 12:26:17;;;;;;;3.25;2.00;;;4.80;96.20;;;;;;5084764;27;20043;-66
2022/04/01 12:28:45;;;;;;;2.22;1.27;;;4.90;96.70;;;;;;5128644;27;20028;-67
2022/04/01 12:31:23;;;;;;;5.40;1.70;;;5.00;97.20;;;;;;5108157;28;20153;-66
2022/04/01 12:33:51;;;;;;;2.92;1.60;;;5.20;94.10;;;;;;5108207;28;20054;-67
2022/04/01 12:36:28;;;;;;;3.97;1.70;;;5.10;95.80;;;;;;5105598;28;20043;-67
2022/04/01 12:39:11;;;;;;;3.85;1.50;;;5.10;95.10;;;;;;5110400;28;20051;-67
2022/04/01 12:41:51;;;;;;;3.17;1.90;;;5.20;94.10;;;;;;5111722;28;20062;-67
2022/04/01 12:44:21;;;;;;;3.17;1.58;;;5.30;94.00;;;;;;5112332;28;20435;-67
2022/04/01 12:46:48;;;;;;;2.00;1.70;;;5.30;93.10;;;;;;5096177;28;20629;-67
2022/04/01 12:49:19;;;;;;;4.57;1.80;;;5.40;95.10;;;;;;5099771;28;20460;-67
2022/04/01 12:51:51;;;;;;;3.25;1.52;;;5.40;93.20;;;;;;5110373;28;20067;-68
2022/04/01 12:54:39;;;;;;;3.42;1.63;;;5.50;94.70;;;;;;5104323;27;20058;-67
2022/04/01 12:57:06;;;;;;;3.80;1.83;;;5.60;94.20;;;;;;5115545;28;20386;-67
2022/04/01 12:59:40;;;;;;;3.80;1.80;;;5.70;94.10;;;;;;5107077;28;20336;-67
2022/04/01 13:02:14;;;;;;;6.93;1.55;;;5.80;95.30;;;;;;5093940;28;20031;-67
2022/04/01 13:04:42;;;;;;;3.80;1.77;;;5.70;93.10;;;;;;5107442;28;20047;-66
2022/04/01 13:07:16;;;;;;;2.33;1.38;;;5.70;93.80;;;;;;5083473;28;20043;-67
2022/04/01 13:09:48;;;;;;;4.45;1.70;;;5.70;92.60;;;;;;5079814;28;20066;-66
2022/04/01 13:12:15;;;;;;;3.00;1.63;;;5.70;92.70;;;;;;5101512;28;20043;-67
2022/04/01 13:14:41;;;;;;;3.13;1.92;;;5.60;93.50;;;;;;5107157;28;20043;-66
2022/04/01 13:17:15;;;;;;;2.65;1.50;;;5.70;93.90;;;;;;5087048;28;20339;-67
2022/04/01 13:19:44;;;;;;;4.20;1.40;;;5.80;93.80;;;;;;5081707;28;20043;-67
2022/04/01 13:22:12;;;;;;;4.37;1.67;;;5.80;93.30;;;;;;5076537;28;20406;-67
2022/04/01 13:24:46;;;;;;;2.63;1.63;;;5.80;93.60;;;;;;5094211;28;20063;-67
2022/04/01 13:27:16;;;;;;;3.55;1.88;;;5.70;93.60;;;;;;5095630;28;20050;-66